Terminal Aerodrome Forecast
Issued by NWS

Home | Current Version | Previous Version | Graphics & Text | Print | Product List | Glossary On
Versions: 1 2 3 4 5 6 7 8 9 10 11 12 13
499
FTUS43 KMPX 240520
TAFAXN
TAF
KAXN 240520Z 2406/2506 30009KT P6SM SCT060
     FM241400 29014G22KT P6SM SCT025 BKN040
     FM250200 32010KT P6SM BKN050=

USA.gov is the U.S. government's official web portal to all federal, state and local government web resources and services.